Steamboat, Nevada
Current Conditions -  °F | °C
As of 11:55 PM on Thursday 23 Oct 2014 (Local Time) from KRNO Reporting Station
Clear Clear  
Wind Chill: 50°   Ceiling: Unl
Heat Index: 50°   Visibility: 10mi
Dew Point: 31°   Wind: 3mph
Humidity: 48%   Direction: 280°W
Pressure: 30.08"   Gusts: NA
Location:  39.3905°N, 119.807°W
Report Text: KRNO 240655Z 28003KT 10SM CLR 10/M01 A3008 RMK AO2 SLP154 T01001006
Loading
Personal Weather Stations






























Interactive Weather Map
Tropical Storm Tracking
New forecast layout! Learn more

10-Day Weather Forecast

Advertisements
Track Severe Weather on mobile